sensor_id;sensor_type;location;lat;lon;timestamp;P1;durP1;ratioP1;P2;durP2;ratioP2
68858;SDS011;55864;49.238;8.092;2023-02-04T00:00:14;7.23;;;2.57;;
68858;SDS011;55864;49.238;8.092;2023-02-04T00:02:15;5.82;;;2.72;;
68858;SDS011;55864;49.238;8.092;2023-02-04T00:04:16;6.33;;;2.83;;
68858;SDS011;55864;49.238;8.092;2023-02-04T00:06:16;5.93;;;2.47;;
68858;SDS011;55864;49.238;8.092;2023-02-04T00:08:17;7.37;;;3.20;;
68858;SDS011;55864;49.238;8.092;2023-02-04T00:10:19;6.67;;;2.90;;
68858;SDS011;55864;49.238;8.092;2023-02-04T00:12:20;6.17;;;2.80;;
68858;SDS011;55864;49.238;8.092;2023-02-04T00:14:20;6.57;;;3.03;;
68858;SDS011;55864;49.238;8.092;2023-02-04T00:16:21;6.73;;;2.90;;
68858;SDS011;55864;49.238;8.092;2023-02-04T00:18:21;6.20;;;2.67;;
68858;SDS011;55864;49.238;8.092;2023-02-04T00:20:22;6.00;;;2.60;;
68858;SDS011;55864;49.238;8.092;2023-02-04T00:22:22;5.90;;;2.70;;
68858;SDS011;55864;49.238;8.092;2023-02-04T00:24:23;6.17;;;2.73;;
68858;SDS011;55864;49.238;8.092;2023-02-04T00:26:25;8.80;;;3.00;;
68858;SDS011;55864;49.238;8.092;2023-02-04T00:28:26;9.73;;;2.80;;
68858;SDS011;55864;49.238;8.092;2023-02-04T00:30:27;6.07;;;2.67;;
68858;SDS011;55864;49.238;8.092;2023-02-04T00:32:28;6.73;;;2.63;;
68858;SDS011;55864;49.238;8.092;2023-02-04T00:34:28;6.57;;;3.00;;
68858;SDS011;55864;49.238;8.092;2023-02-04T00:36:29;6.30;;;2.73;;
68858;SDS011;55864;49.238;8.092;2023-02-04T00:38:29;5.90;;;3.07;;
68858;SDS011;55864;49.238;8.092;2023-02-04T00:40:30;7.70;;;3.40;;
68858;SDS011;55864;49.238;8.092;2023-02-04T00:42:32;7.73;;;3.00;;
68858;SDS011;55864;49.238;8.092;2023-02-04T00:44:32;6.03;;;2.80;;
68858;SDS011;55864;49.238;8.092;2023-02-04T00:46:33;7.00;;;2.77;;
68858;SDS011;55864;49.238;8.092;2023-02-04T00:48:34;7.53;;;2.63;;
68858;SDS011;55864;49.238;8.092;2023-02-04T00:50:35;7.93;;;3.00;;
68858;SDS011;55864;49.238;8.092;2023-02-04T00:52:35;6.33;;;3.03;;
68858;SDS011;55864;49.238;8.092;2023-02-04T00:54:36;7.57;;;3.10;;
68858;SDS011;55864;49.238;8.092;2023-02-04T00:56:37;7.03;;;2.97;;
68858;SDS011;55864;49.238;8.092;2023-02-04T00:58:40;6.47;;;2.90;;
68858;SDS011;55864;49.238;8.092;2023-02-04T01:00:41;8.07;;;3.30;;
68858;SDS011;55864;49.238;8.092;2023-02-04T01:02:42;7.40;;;3.57;;
68858;SDS011;55864;49.238;8.092;2023-02-04T01:04:42;9.40;;;3.80;;
68858;SDS011;55864;49.238;8.092;2023-02-04T01:06:43;7.67;;;3.87;;
68858;SDS011;55864;49.238;8.092;2023-02-04T01:08:44;7.30;;;3.50;;
68858;SDS011;55864;49.238;8.092;2023-02-04T01:10:45;7.07;;;3.30;;
68858;SDS011;55864;49.238;8.092;2023-02-04T01:12:45;7.10;;;3.10;;
68858;SDS011;55864;49.238;8.092;2023-02-04T01:14:47;7.37;;;2.93;;
68858;SDS011;55864;49.238;8.092;2023-02-04T01:16:48;6.73;;;3.13;;
68858;SDS011;55864;49.238;8.092;2023-02-04T01:18:48;5.80;;;2.90;;
68858;SDS011;55864;49.238;8.092;2023-02-04T01:20:49;6.77;;;3.10;;
68858;SDS011;55864;49.238;8.092;2023-02-04T01:22:50;7.43;;;2.90;;
68858;SDS011;55864;49.238;8.092;2023-02-04T01:24:51;6.90;;;3.10;;
68858;SDS011;55864;49.238;8.092;2023-02-04T01:27:10;6.90;;;2.70;;
68858;SDS011;55864;49.238;8.092;2023-02-04T01:29:10;8.43;;;3.20;;
68858;SDS011;55864;49.238;8.092;2023-02-04T01:31:12;6.37;;;2.83;;
68858;SDS011;55864;49.238;8.092;2023-02-04T01:33:14;5.97;;;2.95;;
68858;SDS011;55864;49.238;8.092;2023-02-04T01:35:15;6.23;;;3.03;;
68858;SDS011;55864;49.238;8.092;2023-02-04T01:37:15;7.23;;;2.90;;
68858;SDS011;55864;49.238;8.092;2023-02-04T01:39:16;6.57;;;3.20;;
68858;SDS011;55864;49.238;8.092;2023-02-04T01:41:16;8.57;;;3.27;;
68858;SDS011;55864;49.238;8.092;2023-02-04T01:43:18;7.07;;;3.23;;
68858;SDS011;55864;49.238;8.092;2023-02-04T01:45:19;6.80;;;3.40;;
68858;SDS011;55864;49.238;8.092;2023-02-04T01:47:21;6.40;;;3.00;;
68858;SDS011;55864;49.238;8.092;2023-02-04T01:49:22;6.37;;;3.20;;
68858;SDS011;55864;49.238;8.092;2023-02-04T01:51:23;6.57;;;3.37;;
68858;SDS011;55864;49.238;8.092;2023-02-04T01:53:26;6.07;;;3.08;;
68858;SDS011;55864;49.238;8.092;2023-02-04T01:55:28;5.90;;;3.07;;
68858;SDS011;55864;49.238;8.092;2023-02-04T01:57:30;6.15;;;2.72;;
68858;SDS011;55864;49.238;8.092;2023-02-04T01:59:32;6.30;;;2.90;;
68858;SDS011;55864;49.238;8.092;2023-02-04T02:01:35;8.17;;;2.80;;
68858;SDS011;55864;49.238;8.092;2023-02-04T02:03:38;5.80;;;2.40;;
68858;SDS011;55864;49.238;8.092;2023-02-04T02:05:39;5.40;;;2.00;;
68858;SDS011;55864;49.238;8.092;2023-02-04T02:07:42;4.90;;;1.73;;
68858;SDS011;55864;49.238;8.092;2023-02-04T02:09:43;5.03;;;2.00;;
68858;SDS011;55864;49.238;8.092;2023-02-04T02:11:44;4.70;;;1.77;;
68858;SDS011;55864;49.238;8.092;2023-02-04T02:13:45;4.47;;;1.50;;
68858;SDS011;55864;49.238;8.092;2023-02-04T02:15:46;3.00;;;1.10;;
68858;SDS011;55864;49.238;8.092;2023-02-04T02:17:48;4.90;;;1.10;;
68858;SDS011;55864;49.238;8.092;2023-02-04T02:19:50;3.27;;;1.17;;
68858;SDS011;55864;49.238;8.092;2023-02-04T02:21:52;4.80;;;1.10;;
68858;SDS011;55864;49.238;8.092;2023-02-04T02:24:01;2.70;;;0.90;;
68858;SDS011;55864;49.238;8.092;2023-02-04T02:26:23;3.57;;;1.00;;
68858;SDS011;55864;49.238;8.092;2023-02-04T02:28:24;4.37;;;0.90;;
68858;SDS011;55864;49.238;8.092;2023-02-04T02:30:25;3.13;;;0.80;;
68858;SDS011;55864;49.238;8.092;2023-02-04T02:32:27;3.80;;;0.90;;
68858;SDS011;55864;49.238;8.092;2023-02-04T02:34:28;3.77;;;0.90;;
68858;SDS011;55864;49.238;8.092;2023-02-04T02:36:29;4.40;;;0.90;;
68858;SDS011;55864;49.238;8.092;2023-02-04T02:38:30;4.10;;;0.90;;
68858;SDS011;55864;49.238;8.092;2023-02-04T02:40:31;5.70;;;1.33;;
68858;SDS011;55864;49.238;8.092;2023-02-04T02:42:34;3.60;;;0.93;;
68858;SDS011;55864;49.238;8.092;2023-02-04T02:44:36;3.63;;;1.00;;
68858;SDS011;55864;49.238;8.092;2023-02-04T02:46:37;3.77;;;1.23;;
68858;SDS011;55864;49.238;8.092;2023-02-04T02:48:37;3.23;;;0.90;;
68858;SDS011;55864;49.238;8.092;2023-02-04T02:50:38;3.03;;;0.90;;
68858;SDS011;55864;49.238;8.092;2023-02-04T02:52:39;4.57;;;1.00;;
68858;SDS011;55864;49.238;8.092;2023-02-04T02:54:40;3.80;;;0.90;;
68858;SDS011;55864;49.238;8.092;2023-02-04T02:56:44;4.95;;;0.80;;
68858;SDS011;55864;49.238;8.092;2023-02-04T02:58:44;4.83;;;1.00;;
68858;SDS011;55864;49.238;8.092;2023-02-04T03:00:45;5.13;;;1.07;;
68858;SDS011;55864;49.238;8.092;2023-02-04T03:02:48;6.90;;;1.30;;
68858;SDS011;55864;49.238;8.092;2023-02-04T03:04:54;6.37;;;1.60;;
68858;SDS011;55864;49.238;8.092;2023-02-04T03:07:01;6.63;;;1.30;;
68858;SDS011;55864;49.238;8.092;2023-02-04T03:09:02;5.27;;;1.73;;
68858;SDS011;55864;49.238;8.092;2023-02-04T03:11:03;3.23;;;0.83;;
68858;SDS011;55864;49.238;8.092;2023-02-04T03:13:06;4.63;;;1.13;;
68858;SDS011;55864;49.238;8.092;2023-02-04T03:15:07;3.63;;;1.00;;
68858;SDS011;55864;49.238;8.092;2023-02-04T03:17:08;5.10;;;1.10;;
68858;SDS011;55864;49.238;8.092;2023-02-04T03:19:10;4.70;;;1.00;;
68858;SDS011;55864;49.238;8.092;2023-02-04T03:21:11;5.60;;;1.30;;
68858;SDS011;55864;49.238;8.092;2023-02-04T03:23:12;5.20;;;1.00;;
68858;SDS011;55864;49.238;8.092;2023-02-04T03:25:14;4.27;;;1.03;;
68858;SDS011;55864;49.238;8.092;2023-02-04T03:27:15;6.07;;;1.30;;
68858;SDS011;55864;49.238;8.092;2023-02-04T03:29:17;5.37;;;1.70;;
68858;SDS011;55864;49.238;8.092;2023-02-04T03:31:17;3.47;;;1.30;;
68858;SDS011;55864;49.238;8.092;2023-02-04T03:33:18;5.87;;;1.17;;
68858;SDS011;55864;49.238;8.092;2023-02-04T03:35:19;4.93;;;1.10;;
68858;SDS011;55864;49.238;8.092;2023-02-04T03:37:20;3.87;;;0.90;;
68858;SDS011;55864;49.238;8.092;2023-02-04T03:39:20;3.03;;;1.07;;
68858;SDS011;55864;49.238;8.092;2023-02-04T03:41:21;6.50;;;1.17;;
68858;SDS011;55864;49.238;8.092;2023-02-04T03:43:21;5.53;;;1.10;;
68858;SDS011;55864;49.238;8.092;2023-02-04T03:45:23;5.47;;;1.00;;
68858;SDS011;55864;49.238;8.092;2023-02-04T03:47:24;5.30;;;1.20;;
68858;SDS011;55864;49.238;8.092;2023-02-04T03:49:25;4.10;;;1.07;;
68858;SDS011;55864;49.238;8.092;2023-02-04T03:51:25;5.30;;;1.10;;
68858;SDS011;55864;49.238;8.092;2023-02-04T03:53:26;5.23;;;1.17;;
68858;SDS011;55864;49.238;8.092;2023-02-04T03:55:26;4.60;;;1.00;;
68858;SDS011;55864;49.238;8.092;2023-02-04T03:57:27;3.33;;;1.20;;
68858;SDS011;55864;49.238;8.092;2023-02-04T03:59:27;2.97;;;1.10;;
68858;SDS011;55864;49.238;8.092;2023-02-04T04:01:29;5.93;;;1.00;;
68858;SDS011;55864;49.238;8.092;2023-02-04T04:03:30;3.70;;;1.07;;
68858;SDS011;55864;49.238;8.092;2023-02-04T04:05:30;3.63;;;1.00;;
68858;SDS011;55864;49.238;8.092;2023-02-04T04:07:31;4.37;;;1.10;;
68858;SDS011;55864;49.238;8.092;2023-02-04T04:09:31;4.87;;;1.33;;
68858;SDS011;55864;49.238;8.092;2023-02-04T04:11:32;3.57;;;0.90;;
68858;SDS011;55864;49.238;8.092;2023-02-04T04:13:32;5.73;;;1.20;;
68858;SDS011;55864;49.238;8.092;2023-02-04T04:15:33;4.83;;;1.10;;
68858;SDS011;55864;49.238;8.092;2023-02-04T04:17:35;4.10;;;1.10;;
68858;SDS011;55864;49.238;8.092;2023-02-04T04:19:35;5.00;;;1.10;;
68858;SDS011;55864;49.238;8.092;2023-02-04T04:21:36;5.03;;;1.20;;
68858;SDS011;55864;49.238;8.092;2023-02-04T04:23:36;4.73;;;1.60;;
68858;SDS011;55864;49.238;8.092;2023-02-04T04:25:37;3.07;;;1.03;;
68858;SDS011;55864;49.238;8.092;2023-02-04T04:27:38;5.37;;;1.30;;
68858;SDS011;55864;49.238;8.092;2023-02-04T04:29:38;5.20;;;1.13;;
68858;SDS011;55864;49.238;8.092;2023-02-04T04:31:39;3.50;;;1.13;;
68858;SDS011;55864;49.238;8.092;2023-02-04T04:33:41;5.07;;;1.10;;
68858;SDS011;55864;49.238;8.092;2023-02-04T04:35:41;4.90;;;1.13;;
68858;SDS011;55864;49.238;8.092;2023-02-04T04:37:42;5.70;;;1.10;;
68858;SDS011;55864;49.238;8.092;2023-02-04T04:39:42;5.47;;;1.10;;
68858;SDS011;55864;49.238;8.092;2023-02-04T04:41:43;5.27;;;1.10;;
68858;SDS011;55864;49.238;8.092;2023-02-04T04:43:43;2.93;;;0.90;;
68858;SDS011;55864;49.238;8.092;2023-02-04T04:45:44;6.30;;;0.97;;
68858;SDS011;55864;49.238;8.092;2023-02-04T04:47:44;3.60;;;0.90;;
68858;SDS011;55864;49.238;8.092;2023-02-04T04:49:46;3.17;;;0.90;;
68858;SDS011;55864;49.238;8.092;2023-02-04T04:51:47;2.27;;;0.80;;
68858;SDS011;55864;49.238;8.092;2023-02-04T04:53:47;4.03;;;1.00;;
68858;SDS011;55864;49.238;8.092;2023-02-04T04:55:48;2.40;;;0.80;;
68858;SDS011;55864;49.238;8.092;2023-02-04T04:57:48;3.47;;;1.10;;
68858;SDS011;55864;49.238;8.092;2023-02-04T04:59:49;5.63;;;1.20;;
68858;SDS011;55864;49.238;8.092;2023-02-04T05:01:50;5.33;;;1.10;;
68858;SDS011;55864;49.238;8.092;2023-02-04T05:03:50;2.07;;;0.70;;
68858;SDS011;55864;49.238;8.092;2023-02-04T05:05:52;4.90;;;1.00;;
68858;SDS011;55864;49.238;8.092;2023-02-04T05:07:52;2.73;;;0.90;;
68858;SDS011;55864;49.238;8.092;2023-02-04T05:09:53;3.53;;;1.10;;
68858;SDS011;55864;49.238;8.092;2023-02-04T05:11:54;3.37;;;0.80;;
68858;SDS011;55864;49.238;8.092;2023-02-04T05:13:54;4.27;;;1.20;;
68858;SDS011;55864;49.238;8.092;2023-02-04T05:15:55;3.73;;;1.00;;
68858;SDS011;55864;49.238;8.092;2023-02-04T05:17:55;4.33;;;1.17;;
68858;SDS011;55864;49.238;8.092;2023-02-04T05:19:56;4.50;;;1.50;;
68858;SDS011;55864;49.238;8.092;2023-02-04T05:21:58;4.13;;;1.30;;
68858;SDS011;55864;49.238;8.092;2023-02-04T05:23:58;4.87;;;1.50;;
68858;SDS011;55864;49.238;8.092;2023-02-04T05:25:59;5.47;;;1.50;;
68858;SDS011;55864;49.238;8.092;2023-02-04T05:27:59;7.03;;;1.60;;
68858;SDS011;55864;49.238;8.092;2023-02-04T05:30:00;4.57;;;1.60;;
68858;SDS011;55864;49.238;8.092;2023-02-04T05:32:00;5.03;;;1.90;;
68858;SDS011;55864;49.238;8.092;2023-02-04T05:34:01;4.60;;;1.40;;
68858;SDS011;55864;49.238;8.092;2023-02-04T05:36:01;6.17;;;1.40;;
68858;SDS011;55864;49.238;8.092;2023-02-04T05:38:04;3.73;;;1.10;;
68858;SDS011;55864;49.238;8.092;2023-02-04T05:40:04;6.47;;;1.37;;
68858;SDS011;55864;49.238;8.092;2023-02-04T05:42:06;6.97;;;1.43;;
68858;SDS011;55864;49.238;8.092;2023-02-04T05:44:06;4.33;;;1.00;;
68858;SDS011;55864;49.238;8.092;2023-02-04T05:46:07;5.10;;;1.10;;
68858;SDS011;55864;49.238;8.092;2023-02-04T05:48:07;4.30;;;1.20;;
68858;SDS011;55864;49.238;8.092;2023-02-04T05:50:08;5.87;;;1.10;;
68858;SDS011;55864;49.238;8.092;2023-02-04T05:52:09;3.87;;;1.10;;
68858;SDS011;55864;49.238;8.092;2023-02-04T05:54:11;3.57;;;1.30;;
68858;SDS011;55864;49.238;8.092;2023-02-04T05:56:11;4.40;;;1.27;;
68858;SDS011;55864;49.238;8.092;2023-02-04T05:58:12;5.53;;;1.40;;
68858;SDS011;55864;49.238;8.092;2023-02-04T06:00:13;5.20;;;1.83;;
68858;SDS011;55864;49.238;8.092;2023-02-04T06:02:13;7.37;;;1.50;;
68858;SDS011;55864;49.238;8.092;2023-02-04T06:04:14;7.00;;;2.00;;
68858;SDS011;55864;49.238;8.092;2023-02-04T06:06:14;4.77;;;1.50;;
68858;SDS011;55864;49.238;8.092;2023-02-04T06:08:15;6.57;;;1.93;;
68858;SDS011;55864;49.238;8.092;2023-02-04T06:10:17;7.47;;;1.60;;
68858;SDS011;55864;49.238;8.092;2023-02-04T06:12:18;5.23;;;1.43;;
68858;SDS011;55864;49.238;8.092;2023-02-04T06:14:18;5.00;;;1.53;;
68858;SDS011;55864;49.238;8.092;2023-02-04T06:16:19;6.23;;;1.50;;
68858;SDS011;55864;49.238;8.092;2023-02-04T06:18:20;5.57;;;1.33;;
68858;SDS011;55864;49.238;8.092;2023-02-04T06:20:20;7.17;;;1.30;;
68858;SDS011;55864;49.238;8.092;2023-02-04T06:22:21;3.93;;;1.17;;
68858;SDS011;55864;49.238;8.092;2023-02-04T06:24:21;4.47;;;1.60;;
68858;SDS011;55864;49.238;8.092;2023-02-04T06:26:23;3.77;;;1.17;;
68858;SDS011;55864;49.238;8.092;2023-02-04T06:28:24;4.87;;;1.37;;
68858;SDS011;55864;49.238;8.092;2023-02-04T06:30:24;6.73;;;2.20;;
68858;SDS011;55864;49.238;8.092;2023-02-04T06:32:25;6.17;;;1.83;;
68858;SDS011;55864;49.238;8.092;2023-02-04T06:34:25;7.17;;;1.70;;
68858;SDS011;55864;49.238;8.092;2023-02-04T06:36:26;7.20;;;1.53;;
68858;SDS011;55864;49.238;8.092;2023-02-04T06:38:26;7.67;;;1.80;;
68858;SDS011;55864;49.238;8.092;2023-02-04T06:40:27;4.90;;;1.63;;
68858;SDS011;55864;49.238;8.092;2023-02-04T06:42:29;6.10;;;1.80;;
68858;SDS011;55864;49.238;8.092;2023-02-04T06:44:29;4.87;;;1.60;;
68858;SDS011;55864;49.238;8.092;2023-02-04T06:46:30;7.13;;;1.60;;
68858;SDS011;55864;49.238;8.092;2023-02-04T06:48:31;7.03;;;1.93;;
68858;SDS011;55864;49.238;8.092;2023-02-04T06:50:31;8.60;;;1.60;;
68858;SDS011;55864;49.238;8.092;2023-02-04T06:52:32;7.97;;;1.80;;
68858;SDS011;55864;49.238;8.092;2023-02-04T06:54:32;5.33;;;1.50;;
68858;SDS011;55864;49.238;8.092;2023-02-04T06:56:33;6.07;;;1.40;;
68858;SDS011;55864;49.238;8.092;2023-02-04T06:58:35;6.90;;;1.80;;
68858;SDS011;55864;49.238;8.092;2023-02-04T07:00:35;5.47;;;1.43;;
68858;SDS011;55864;49.238;8.092;2023-02-04T07:02:36;8.13;;;1.70;;
68858;SDS011;55864;49.238;8.092;2023-02-04T07:04:37;7.23;;;1.80;;
68858;SDS011;55864;49.238;8.092;2023-02-04T07:06:37;8.67;;;2.00;;
68858;SDS011;55864;49.238;8.092;2023-02-04T07:08:38;8.63;;;2.10;;
68858;SDS011;55864;49.238;8.092;2023-02-04T07:10:38;8.27;;;1.63;;
68858;SDS011;55864;49.238;8.092;2023-02-04T07:12:39;11.50;;;2.00;;
68858;SDS011;55864;49.238;8.092;2023-02-04T07:14:41;6.03;;;1.87;;
68858;SDS011;55864;49.238;8.092;2023-02-04T07:16:41;6.90;;;1.80;;
68858;SDS011;55864;49.238;8.092;2023-02-04T07:18:42;14.80;;;1.80;;
68858;SDS011;55864;49.238;8.092;2023-02-04T07:20:42;8.33;;;2.10;;
68858;SDS011;55864;49.238;8.092;2023-02-04T07:22:43;7.13;;;1.73;;
68858;SDS011;55864;49.238;8.092;2023-02-04T07:24:43;7.43;;;1.87;;
68858;SDS011;55864;49.238;8.092;2023-02-04T07:26:44;7.43;;;2.07;;
68858;SDS011;55864;49.238;8.092;2023-02-04T07:28:45;5.90;;;1.37;;
68858;SDS011;55864;49.238;8.092;2023-02-04T07:30:47;7.83;;;1.87;;
68858;SDS011;55864;49.238;8.092;2023-02-04T07:32:47;9.53;;;1.60;;
68858;SDS011;55864;49.238;8.092;2023-02-04T07:34:48;10.07;;;2.10;;
68858;SDS011;55864;49.238;8.092;2023-02-04T07:36:48;8.70;;;1.70;;
68858;SDS011;55864;49.238;8.092;2023-02-04T07:38:49;9.67;;;2.07;;
68858;SDS011;55864;49.238;8.092;2023-02-04T07:40:49;7.73;;;1.83;;
68858;SDS011;55864;49.238;8.092;2023-02-04T07:42:50;6.53;;;1.77;;
68858;SDS011;55864;49.238;8.092;2023-02-04T07:44:54;8.80;;;1.93;;
68858;SDS011;55864;49.238;8.092;2023-02-04T07:46:56;8.57;;;1.87;;
68858;SDS011;55864;49.238;8.092;2023-02-04T07:48:57;6.60;;;2.17;;
68858;SDS011;55864;49.238;8.092;2023-02-04T07:50:57;6.57;;;1.73;;
68858;SDS011;55864;49.238;8.092;2023-02-04T07:52:58;7.83;;;1.70;;
68858;SDS011;55864;49.238;8.092;2023-02-04T07:54:58;6.80;;;1.70;;
68858;SDS011;55864;49.238;8.092;2023-02-04T07:56:59;9.07;;;1.70;;
68858;SDS011;55864;49.238;8.092;2023-02-04T07:58:59;6.47;;;1.83;;
68858;SDS011;55864;49.238;8.092;2023-02-04T08:01:00;8.80;;;2.10;;
68858;SDS011;55864;49.238;8.092;2023-02-04T08:03:02;5.53;;;1.73;;
68858;SDS011;55864;49.238;8.092;2023-02-04T08:05:02;10.17;;;1.80;;
68858;SDS011;55864;49.238;8.092;2023-02-04T08:07:03;5.60;;;1.70;;
68858;SDS011;55864;49.238;8.092;2023-02-04T08:09:04;7.03;;;2.10;;
68858;SDS011;55864;49.238;8.092;2023-02-04T08:11:05;7.10;;;2.37;;
68858;SDS011;55864;49.238;8.092;2023-02-04T08:13:05;6.00;;;1.67;;
68858;SDS011;55864;49.238;8.092;2023-02-04T08:15:06;8.67;;;2.00;;
68858;SDS011;55864;49.238;8.092;2023-02-04T08:17:07;9.23;;;1.97;;
68858;SDS011;55864;49.238;8.092;2023-02-04T08:19:09;8.23;;;2.50;;
68858;SDS011;55864;49.238;8.092;2023-02-04T08:21:09;7.33;;;1.73;;
68858;SDS011;55864;49.238;8.092;2023-02-04T08:23:10;6.80;;;1.90;;
68858;SDS011;55864;49.238;8.092;2023-02-04T08:25:11;10.13;;;2.00;;
68858;SDS011;55864;49.238;8.092;2023-02-04T08:27:11;8.30;;;1.87;;
68858;SDS011;55864;49.238;8.092;2023-02-04T08:29:12;6.33;;;2.20;;
68858;SDS011;55864;49.238;8.092;2023-02-04T08:31:13;7.00;;;1.90;;
68858;SDS011;55864;49.238;8.092;2023-02-04T08:33:13;7.73;;;1.80;;
68858;SDS011;55864;49.238;8.092;2023-02-04T08:35:15;8.97;;;2.00;;
68858;SDS011;55864;49.238;8.092;2023-02-04T08:37:16;5.73;;;1.80;;
68858;SDS011;55864;49.238;8.092;2023-02-04T08:39:16;11.03;;;2.53;;
68858;SDS011;55864;49.238;8.092;2023-02-04T08:41:17;9.70;;;2.10;;
68858;SDS011;55864;49.238;8.092;2023-02-04T08:43:17;9.13;;;2.10;;
68858;SDS011;55864;49.238;8.092;2023-02-04T08:45:18;10.10;;;2.03;;
68858;SDS011;55864;49.238;8.092;2023-02-04T08:47:18;13.23;;;2.20;;
68858;SDS011;55864;49.238;8.092;2023-02-04T08:49:19;14.03;;;2.07;;
68858;SDS011;55864;49.238;8.092;2023-02-04T08:51:21;9.80;;;2.03;;
68858;SDS011;55864;49.238;8.092;2023-02-04T08:53:21;8.07;;;2.10;;
68858;SDS011;55864;49.238;8.092;2023-02-04T08:55:22;13.87;;;2.20;;
68858;SDS011;55864;49.238;8.092;2023-02-04T08:57:23;12.90;;;2.40;;
68858;SDS011;55864;49.238;8.092;2023-02-04T08:59:23;9.60;;;2.20;;
68858;SDS011;55864;49.238;8.092;2023-02-04T09:01:24;8.93;;;2.17;;
68858;SDS011;55864;49.238;8.092;2023-02-04T09:03:24;11.80;;;2.43;;
68858;SDS011;55864;49.238;8.092;2023-02-04T09:05:25;11.63;;;2.40;;
68858;SDS011;55864;49.238;8.092;2023-02-04T09:07:27;9.93;;;2.30;;
68858;SDS011;55864;49.238;8.092;2023-02-04T09:09:27;13.07;;;2.50;;
68858;SDS011;55864;49.238;8.092;2023-02-04T09:11:28;11.63;;;2.27;;
68858;SDS011;55864;49.238;8.092;2023-02-04T09:13:28;11.07;;;2.27;;
68858;SDS011;55864;49.238;8.092;2023-02-04T09:15:29;11.70;;;2.13;;
68858;SDS011;55864;49.238;8.092;2023-02-04T09:17:30;8.63;;;2.10;;
68858;SDS011;55864;49.238;8.092;2023-02-04T09:19:30;12.33;;;2.60;;
68858;SDS011;55864;49.238;8.092;2023-02-04T09:21:31;15.43;;;2.40;;
68858;SDS011;55864;49.238;8.092;2023-02-04T09:23:33;11.57;;;2.30;;
68858;SDS011;55864;49.238;8.092;2023-02-04T09:25:33;13.20;;;2.33;;
68858;SDS011;55864;49.238;8.092;2023-02-04T09:27:34;12.83;;;3.33;;
68858;SDS011;55864;49.238;8.092;2023-02-04T09:29:34;12.50;;;2.43;;
68858;SDS011;55864;49.238;8.092;2023-02-04T09:31:35;11.90;;;2.97;;
68858;SDS011;55864;49.238;8.092;2023-02-04T09:33:36;11.90;;;2.80;;
68858;SDS011;55864;49.238;8.092;2023-02-04T09:35:37;10.73;;;2.40;;
68858;SDS011;55864;49.238;8.092;2023-02-04T09:37:37;13.00;;;2.50;;
68858;SDS011;55864;49.238;8.092;2023-02-04T09:39:39;11.70;;;2.50;;
68858;SDS011;55864;49.238;8.092;2023-02-04T09:41:40;11.87;;;2.50;;
68858;SDS011;55864;49.238;8.092;2023-02-04T09:43:42;14.43;;;2.77;;
68858;SDS011;55864;49.238;8.092;2023-02-04T09:45:44;10.60;;;2.10;;
68858;SDS011;55864;49.238;8.092;2023-02-04T09:47:44;14.80;;;2.97;;
68858;SDS011;55864;49.238;8.092;2023-02-04T09:49:45;10.93;;;2.50;;
68858;SDS011;55864;49.238;8.092;2023-02-04T09:51:46;11.53;;;2.27;;
68858;SDS011;55864;49.238;8.092;2023-02-04T09:53:47;13.43;;;2.63;;
68858;SDS011;55864;49.238;8.092;2023-02-04T09:55:51;13.27;;;2.58;;
68858;SDS011;55864;49.238;8.092;2023-02-04T09:57:52;12.67;;;3.20;;
68858;SDS011;55864;49.238;8.092;2023-02-04T09:59:52;11.67;;;2.20;;
68858;SDS011;55864;49.238;8.092;2023-02-04T10:01:54;11.40;;;2.47;;
68858;SDS011;55864;49.238;8.092;2023-02-04T10:06:00;15.43;;;3.20;;
68858;SDS011;55864;49.238;8.092;2023-02-04T10:08:00;18.83;;;3.23;;
68858;SDS011;55864;49.238;8.092;2023-02-04T10:10:04;11.18;;;2.65;;
68858;SDS011;55864;49.238;8.092;2023-02-04T10:12:07;12.27;;;2.83;;
68858;SDS011;55864;49.238;8.092;2023-02-04T10:14:08;16.30;;;2.60;;
68858;SDS011;55864;49.238;8.092;2023-02-04T10:16:13;13.93;;;2.87;;
68858;SDS011;55864;49.238;8.092;2023-02-04T10:18:16;14.10;;;2.40;;
68858;SDS011;55864;49.238;8.092;2023-02-04T10:20:21;13.47;;;2.60;;
68858;SDS011;55864;49.238;8.092;2023-02-04T10:22:23;12.45;;;2.40;;
68858;SDS011;55864;49.238;8.092;2023-02-04T10:24:24;17.33;;;2.70;;
68858;SDS011;55864;49.238;8.092;2023-02-04T10:26:26;14.30;;;2.60;;
68858;SDS011;55864;49.238;8.092;2023-02-04T10:28:33;13.00;;;2.40;;
68858;SDS011;55864;49.238;8.092;2023-02-04T10:30:37;13.17;;;2.80;;
68858;SDS011;55864;49.238;8.092;2023-02-04T10:32:39;14.77;;;2.70;;
68858;SDS011;55864;49.238;8.092;2023-02-04T10:34:39;14.97;;;2.87;;
68858;SDS011;55864;49.238;8.092;2023-02-04T10:36:41;12.87;;;2.70;;
68858;SDS011;55864;49.238;8.092;2023-02-04T10:38:42;14.87;;;2.97;;
68858;SDS011;55864;49.238;8.092;2023-02-04T10:40:43;18.37;;;3.27;;
68858;SDS011;55864;49.238;8.092;2023-02-04T10:42:46;14.10;;;3.23;;
68858;SDS011;55864;49.238;8.092;2023-02-04T10:44:49;14.80;;;3.00;;
68858;SDS011;55864;49.238;8.092;2023-02-04T10:46:57;14.50;;;3.20;;
68858;SDS011;55864;49.238;8.092;2023-02-04T10:48:58;11.00;;;2.63;;
68858;SDS011;55864;49.238;8.092;2023-02-04T10:50:58;11.37;;;2.93;;
68858;SDS011;55864;49.238;8.092;2023-02-04T10:52:59;18.83;;;3.13;;
68858;SDS011;55864;49.238;8.092;2023-02-04T10:55:01;11.67;;;2.07;;
68858;SDS011;55864;49.238;8.092;2023-02-04T10:57:06;22.27;;;3.03;;
68858;SDS011;55864;49.238;8.092;2023-02-04T10:59:16;18.73;;;3.90;;
68858;SDS011;55864;49.238;8.092;2023-02-04T11:01:24;12.10;;;3.67;;
68858;SDS011;55864;49.238;8.092;2023-02-04T11:03:28;12.93;;;2.73;;
68858;SDS011;55864;49.238;8.092;2023-02-04T11:05:29;13.27;;;2.30;;
68858;SDS011;55864;49.238;8.092;2023-02-04T11:07:31;18.35;;;3.08;;
68858;SDS011;55864;49.238;8.092;2023-02-04T11:09:32;12.93;;;2.40;;
68858;SDS011;55864;49.238;8.092;2023-02-04T11:11:32;12.17;;;2.60;;
68858;SDS011;55864;49.238;8.092;2023-02-04T11:13:39;9.67;;;2.37;;
68858;SDS011;55864;49.238;8.092;2023-02-04T11:15:42;12.30;;;2.50;;
68858;SDS011;55864;49.238;8.092;2023-02-04T11:17:46;13.00;;;2.35;;
68858;SDS011;55864;49.238;8.092;2023-02-04T11:20:12;14.10;;;2.60;;
68858;SDS011;55864;49.238;8.092;2023-02-04T11:22:20;14.23;;;2.10;;
68858;SDS011;55864;49.238;8.092;2023-02-04T11:24:23;12.83;;;2.60;;
68858;SDS011;55864;49.238;8.092;2023-02-04T11:26:31;12.48;;;2.17;;
68858;SDS011;55864;49.238;8.092;2023-02-04T11:28:44;10.93;;;2.10;;
68858;SDS011;55864;49.238;8.092;2023-02-04T11:30:57;9.33;;;2.30;;
68858;SDS011;55864;49.238;8.092;2023-02-04T11:33:03;14.43;;;2.40;;
68858;SDS011;55864;49.238;8.092;2023-02-04T11:35:24;11.50;;;2.03;;
68858;SDS011;55864;49.238;8.092;2023-02-04T11:37:36;13.80;;;2.57;;
68858;SDS011;55864;49.238;8.092;2023-02-04T11:39:38;12.07;;;2.17;;
68858;SDS011;55864;49.238;8.092;2023-02-04T11:41:41;19.50;;;2.67;;
68858;SDS011;55864;49.238;8.092;2023-02-04T11:43:44;12.63;;;2.42;;
68858;SDS011;55864;49.238;8.092;2023-02-04T11:45:45;14.37;;;2.80;;
68858;SDS011;55864;49.238;8.092;2023-02-04T11:47:45;17.27;;;2.90;;
68858;SDS011;55864;49.238;8.092;2023-02-04T11:49:53;8.00;;;2.13;;
68858;SDS011;55864;49.238;8.092;2023-02-04T11:52:02;15.33;;;3.10;;
68858;SDS011;55864;49.238;8.092;2023-02-04T11:54:04;18.90;;;3.20;;
68858;SDS011;55864;49.238;8.092;2023-02-04T11:56:04;15.23;;;2.90;;
68858;SDS011;55864;49.238;8.092;2023-02-04T11:58:05;14.37;;;3.63;;
68858;SDS011;55864;49.238;8.092;2023-02-04T12:00:14;13.13;;;3.00;;
68858;SDS011;55864;49.238;8.092;2023-02-04T12:02:18;11.98;;;2.50;;
68858;SDS011;55864;49.238;8.092;2023-02-04T12:04:21;11.93;;;2.78;;
68858;SDS011;55864;49.238;8.092;2023-02-04T12:06:25;16.90;;;3.97;;
68858;SDS011;55864;49.238;8.092;2023-02-04T12:08:31;21.93;;;3.97;;
68858;SDS011;55864;49.238;8.092;2023-02-04T12:10:33;15.37;;;3.30;;